createdAt,value
2023-02-04T00:00:37.165Z,1.80
2023-02-04T00:03:05.974Z,1.50
2023-02-04T00:05:33.997Z,1.50
2023-02-04T00:08:04.075Z,1.77
2023-02-04T00:10:32.498Z,1.40
2023-02-04T00:13:00.568Z,1.70
2023-02-04T00:15:28.444Z,1.43
2023-02-04T00:17:56.559Z,1.43
2023-02-04T00:20:24.896Z,1.60
2023-02-04T00:22:52.875Z,1.30
2023-02-04T00:25:22.190Z,1.50
2023-02-04T00:27:50.131Z,1.60
2023-02-04T00:30:18.617Z,1.50
2023-02-04T00:32:46.871Z,1.37
2023-02-04T00:35:15.274Z,1.30
2023-02-04T00:37:43.185Z,1.50
2023-02-04T00:40:12.691Z,1.30
2023-02-04T00:42:42.031Z,1.53
2023-02-04T00:45:11.275Z,1.60
2023-02-04T00:47:39.310Z,1.87
2023-02-04T00:50:07.683Z,1.43
2023-02-04T00:52:35.545Z,1.30
2023-02-04T00:55:03.438Z,1.53
2023-02-04T00:57:31.298Z,1.40
2023-02-04T01:00:00.556Z,1.47
2023-02-04T01:02:28.722Z,1.50
2023-02-04T01:04:56.564Z,1.63
2023-02-04T01:07:24.614Z,1.70
2023-02-04T01:09:52.697Z,1.40
2023-02-04T01:12:22.960Z,1.50
2023-02-04T01:14:50.981Z,1.40
2023-02-04T01:17:21.313Z,1.90
2023-02-04T01:19:49.337Z,1.70
2023-02-04T01:22:17.354Z,1.43
2023-02-04T01:24:45.258Z,1.63
2023-02-04T01:27:13.065Z,1.50
2023-02-04T01:29:40.932Z,1.60
2023-02-04T01:32:08.937Z,1.57
2023-02-04T01:34:38.250Z,1.70
2023-02-04T01:37:06.754Z,1.70
2023-02-04T01:39:35.168Z,1.47
2023-02-04T01:42:03.062Z,1.70
2023-02-04T01:44:31.482Z,1.70
2023-02-04T01:47:00.771Z,1.90
2023-02-04T01:49:28.906Z,1.73
2023-02-04T01:51:58.654Z,1.67
2023-02-04T01:54:28.243Z,1.90
2023-02-04T01:56:56.270Z,1.83
2023-02-04T01:59:24.670Z,1.80
2023-02-04T02:01:54.192Z,1.70
2023-02-04T02:04:29.898Z,1.67
2023-02-04T02:07:02.190Z,1.90
2023-02-04T02:09:31.578Z,1.60
2023-02-04T02:12:00.086Z,1.73
2023-02-04T02:14:28.199Z,1.80
2023-02-04T02:16:56.086Z,1.77
2023-02-04T02:19:29.025Z,1.73
2023-02-04T02:22:05.265Z,1.43
2023-02-04T02:24:36.143Z,1.93
2023-02-04T02:27:08.437Z,1.60
2023-02-04T02:29:37.350Z,1.80
2023-02-04T02:32:06.015Z,1.60
2023-02-04T02:34:35.481Z,1.60
2023-02-04T02:37:04.471Z,1.70
2023-02-04T02:39:32.430Z,1.77
2023-02-04T02:42:01.983Z,1.73
2023-02-04T02:44:31.066Z,1.73
2023-02-04T02:46:59.965Z,1.70
2023-02-04T02:49:30.384Z,1.70
2023-02-04T02:51:58.570Z,1.70
2023-02-04T02:54:30.356Z,1.93
2023-02-04T02:56:58.938Z,1.53
2023-02-04T02:59:28.476Z,1.77
2023-02-04T03:02:02.745Z,1.80
2023-02-04T03:04:33.985Z,1.80
2023-02-04T03:07:02.476Z,1.80
2023-02-04T03:09:30.861Z,1.77
2023-02-04T03:11:59.046Z,1.67
2023-02-04T03:14:28.933Z,2.00
2023-02-04T03:16:57.313Z,2.00
2023-02-04T03:19:27.040Z,2.00
2023-02-04T03:21:56.713Z,1.80
2023-02-04T03:24:25.382Z,1.90
2023-02-04T03:26:53.672Z,1.90
2023-02-04T03:29:21.559Z,2.03
2023-02-04T03:31:51.078Z,2.00
2023-02-04T03:34:18.967Z,2.10
2023-02-04T03:36:46.913Z,2.00
2023-02-04T03:39:15.113Z,2.20
2023-02-04T03:41:42.970Z,2.30
2023-02-04T03:44:10.852Z,2.10
2023-02-04T03:46:38.686Z,2.23
2023-02-04T03:49:07.888Z,2.40
2023-02-04T03:51:35.881Z,2.30
2023-02-04T03:54:04.021Z,2.20
2023-02-04T03:56:32.239Z,2.30
2023-02-04T03:59:00.143Z,2.20
2023-02-04T04:01:27.988Z,2.40
2023-02-04T04:03:55.872Z,2.40
2023-02-04T04:06:25.379Z,2.17
2023-02-04T04:08:53.189Z,2.30
2023-02-04T04:11:22.048Z,1.90
2023-02-04T04:13:49.989Z,2.10
2023-02-04T04:16:17.841Z,2.47
2023-02-04T04:18:45.783Z,2.30
2023-02-04T04:21:13.762Z,2.20
2023-02-04T04:23:43.066Z,2.27
2023-02-04T04:26:10.871Z,2.40
2023-02-04T04:28:38.790Z,2.40
2023-02-04T04:31:06.828Z,2.30
2023-02-04T04:33:34.645Z,2.43
2023-02-04T04:36:02.974Z,2.40
2023-02-04T04:38:30.810Z,2.23
2023-02-04T04:40:59.994Z,2.10
2023-02-04T04:43:28.285Z,3.60
2023-02-04T04:45:56.162Z,2.50
2023-02-04T04:48:25.101Z,2.50
2023-02-04T04:50:53.128Z,2.40
2023-02-04T04:53:20.908Z,2.13
2023-02-04T04:55:48.731Z,2.10
2023-02-04T04:58:18.375Z,2.03
2023-02-04T05:00:46.271Z,2.50
2023-02-04T05:03:14.215Z,2.57
2023-02-04T05:05:44.345Z,1.93
2023-02-04T05:08:14.039Z,2.37
2023-02-04T05:10:41.918Z,2.60
2023-02-04T05:13:10.372Z,2.10
2023-02-04T05:15:39.973Z,2.13
2023-02-04T05:18:07.852Z,2.13
2023-02-04T05:20:36.095Z,2.30
2023-02-04T05:23:05.717Z,2.40
2023-02-04T05:25:34.021Z,2.60
2023-02-04T05:28:01.987Z,2.43
2023-02-04T05:30:30.115Z,2.53
2023-02-04T05:32:59.799Z,2.30
2023-02-04T05:35:27.629Z,2.50
2023-02-04T05:37:55.481Z,2.63
2023-02-04T05:40:23.292Z,2.20
2023-02-04T05:42:51.240Z,2.27
2023-02-04T05:45:20.043Z,2.33
2023-02-04T05:47:48.696Z,2.63
2023-02-04T05:50:18.835Z,2.40
2023-02-04T05:52:46.696Z,2.77
2023-02-04T05:55:15.071Z,3.00
2023-02-04T05:57:43.457Z,2.57
2023-02-04T06:00:13.335Z,2.87
2023-02-04T06:02:41.362Z,2.87
2023-02-04T06:05:09.608Z,2.40
2023-02-04T06:07:38.921Z,2.70
2023-02-04T06:10:07.150Z,2.43
2023-02-04T06:12:34.992Z,2.80
2023-02-04T06:15:02.860Z,2.50
2023-02-04T06:17:31.090Z,2.70
2023-02-04T06:19:58.917Z,2.80
2023-02-04T06:22:26.862Z,3.07
2023-02-04T06:24:56.189Z,2.83
2023-02-04T06:27:24.370Z,3.03
2023-02-04T06:29:52.598Z,3.00
2023-02-04T06:32:21.525Z,2.80
2023-02-04T06:34:49.342Z,3.37
2023-02-04T06:37:18.630Z,2.90
2023-02-04T06:39:46.632Z,3.17
2023-02-04T06:42:15.802Z,3.20
2023-02-04T06:44:43.682Z,3.40
2023-02-04T06:47:11.535Z,3.63
2023-02-04T06:49:39.579Z,3.60
2023-02-04T06:52:07.636Z,3.47
2023-02-04T06:54:35.537Z,3.70
2023-02-04T06:57:06.737Z,3.43
2023-02-04T06:59:37.138Z,3.23
2023-02-04T07:02:05.976Z,3.37
2023-02-04T07:04:34.701Z,3.30
2023-02-04T07:07:02.892Z,3.43
2023-02-04T07:09:31.089Z,3.40
2023-02-04T07:11:58.921Z,3.47
2023-02-04T07:14:26.886Z,3.10
2023-02-04T07:16:58.190Z,3.50
2023-02-04T07:19:26.200Z,3.50
2023-02-04T07:21:56.928Z,3.70
2023-02-04T07:24:25.313Z,3.23
2023-02-04T07:26:53.557Z,3.60
2023-02-04T07:29:25.587Z,3.00
2023-02-04T07:31:53.935Z,3.10
2023-02-04T07:34:23.415Z,3.07
2023-02-04T07:36:51.511Z,3.17
2023-02-04T07:39:19.612Z,3.60
2023-02-04T07:41:47.432Z,3.50
2023-02-04T07:44:15.260Z,3.40
2023-02-04T07:46:43.293Z,4.20
2023-02-04T07:49:11.231Z,4.50
2023-02-04T07:51:40.501Z,4.23
2023-02-04T07:54:08.332Z,4.63
2023-02-04T07:56:36.258Z,4.13
2023-02-04T07:59:04.223Z,4.23
2023-02-04T08:01:33.048Z,3.93
2023-02-04T08:04:02.063Z,4.13
2023-02-04T08:06:30.641Z,3.57
2023-02-04T08:08:59.962Z,4.23
2023-02-04T08:11:28.519Z,3.63
2023-02-04T08:13:56.422Z,3.90
2023-02-04T08:16:24.406Z,3.53
2023-02-04T08:18:52.269Z,3.60
2023-02-04T08:21:20.105Z,3.60
2023-02-04T08:23:48.043Z,3.60
2023-02-04T08:26:17.233Z,3.93
2023-02-04T08:28:45.077Z,3.60
2023-02-04T08:31:13.568Z,3.50
2023-02-04T08:33:41.478Z,3.30
2023-02-04T08:36:09.933Z,3.70
2023-02-04T08:38:37.846Z,3.07
2023-02-04T08:41:06.172Z,3.00
2023-02-04T08:43:35.347Z,3.40
2023-02-04T08:46:03.205Z,3.10
2023-02-04T08:48:31.156Z,2.87
2023-02-04T08:50:58.989Z,3.00
2023-02-04T08:53:26.913Z,3.10
2023-02-04T08:55:54.737Z,2.90
2023-02-04T08:58:22.531Z,3.43
2023-02-04T09:00:51.854Z,3.20
2023-02-04T09:03:19.750Z,3.00
2023-02-04T09:05:47.649Z,2.60
2023-02-04T09:08:17.113Z,2.67
2023-02-04T09:10:44.981Z,3.10
2023-02-04T09:13:14.410Z,3.13
2023-02-04T09:15:42.247Z,3.53
2023-02-04T09:18:16.467Z,3.10
2023-02-04T09:20:44.816Z,3.10
2023-02-04T09:23:13.298Z,2.50
2023-02-04T09:25:41.738Z,2.60
2023-02-04T09:28:11.654Z,2.77
2023-02-04T09:30:40.582Z,3.87
2023-02-04T09:33:09.080Z,3.10
2023-02-04T09:35:38.873Z,2.97
2023-02-04T09:38:06.963Z,2.70
2023-02-04T09:40:38.106Z,2.60
2023-02-04T09:43:06.931Z,2.80
2023-02-04T09:45:36.621Z,2.50
2023-02-04T09:48:06.851Z,2.43
2023-02-04T09:50:35.573Z,2.60
2023-02-04T09:53:07.999Z,2.07
2023-02-04T09:55:41.207Z,2.10
2023-02-04T09:58:16.108Z,2.10
2023-02-04T10:00:44.391Z,2.33
2023-02-04T10:03:17.867Z,1.90
2023-02-04T10:05:47.161Z,2.27
2023-02-04T10:08:19.438Z,1.97
2023-02-04T10:10:49.440Z,1.93
2023-02-04T10:13:19.684Z,2.20
2023-02-04T10:15:48.764Z,2.27
2023-02-04T10:18:24.325Z,1.97
2023-02-04T10:20:53.014Z,2.00
2023-02-04T10:23:25.273Z,2.10
2023-02-04T10:25:53.252Z,2.57
2023-02-04T10:28:21.504Z,2.13
2023-02-04T10:30:50.290Z,2.27
2023-02-04T10:33:24.922Z,2.43
2023-02-04T10:35:56.001Z,2.37
2023-02-04T10:38:25.810Z,2.10
2023-02-04T10:41:02.938Z,2.10
2023-02-04T10:43:31.012Z,5.10
2023-02-04T10:46:00.975Z,2.87
2023-02-04T10:48:33.318Z,2.97
2023-02-04T10:51:01.145Z,2.50
2023-02-04T10:53:47.790Z,2.70
2023-02-04T10:56:18.206Z,2.10
2023-02-04T10:58:46.193Z,2.30
2023-02-04T11:01:16.366Z,4.63
2023-02-04T11:03:48.073Z,2.40
2023-02-04T11:06:22.098Z,2.67
2023-02-04T11:08:53.598Z,5.50
2023-02-04T11:11:24.530Z,6.83
2023-02-04T11:14:04.344Z,4.10
2023-02-04T11:16:35.617Z,2.60
2023-02-04T11:19:05.854Z,2.30
2023-02-04T11:21:45.626Z,2.37
2023-02-04T11:24:25.774Z,1.93
2023-02-04T11:27:06.248Z,2.67
2023-02-04T11:29:38.205Z,2.27
2023-02-04T11:32:08.376Z,2.40
2023-02-04T11:34:49.614Z,2.00
2023-02-04T11:37:28.947Z,10.73
2023-02-04T11:40:01.246Z,9.90
2023-02-04T11:42:34.151Z,2.53
2023-02-04T11:45:03.598Z,2.87
2023-02-04T11:47:36.906Z,5.33
2023-02-04T11:50:14.177Z,3.80
2023-02-04T11:52:42.540Z,3.67
2023-02-04T11:55:13.840Z,2.30
2023-02-04T11:57:43.074Z,2.10
2023-02-04T12:00:16.480Z,2.00
2023-02-04T12:02:47.373Z,2.17
2023-02-04T12:05:17.190Z,2.00
2023-02-04T12:07:46.110Z,2.50
2023-02-04T12:10:25.574Z,2.00
2023-02-04T12:12:57.645Z,2.50
2023-02-04T12:15:33.550Z,2.27
2023-02-04T12:18:03.368Z,2.10
2023-02-04T12:20:31.560Z,2.37
2023-02-04T12:22:59.542Z,2.53
2023-02-04T12:25:29.034Z,2.03
2023-02-04T12:27:57.668Z,2.33
2023-02-04T12:30:27.231Z,2.10
2023-02-04T12:32:55.186Z,2.20
2023-02-04T12:35:23.187Z,2.20
2023-02-04T12:37:51.168Z,1.90
2023-02-04T12:40:20.848Z,1.73
2023-02-04T12:42:50.092Z,1.90
2023-02-04T12:45:19.139Z,2.40
2023-02-04T12:47:47.880Z,2.10
2023-02-04T12:50:22.575Z,1.90
2023-02-04T12:52:51.922Z,1.90
2023-02-04T12:55:20.421Z,1.80
2023-02-04T12:57:48.398Z,2.30
2023-02-04T13:00:19.673Z,2.27
2023-02-04T13:02:48.467Z,2.03
2023-02-04T13:05:18.559Z,1.90
2023-02-04T13:07:47.220Z,1.60
2023-02-04T13:10:16.046Z,2.00
2023-02-04T13:12:43.911Z,2.07
2023-02-04T13:15:12.360Z,1.60
2023-02-04T13:17:41.603Z,2.33
2023-02-04T13:20:10.737Z,1.90
2023-02-04T13:22:38.665Z,1.67
2023-02-04T13:25:07.518Z,2.33
2023-02-04T13:27:35.389Z,2.30
2023-02-04T13:30:04.078Z,2.10
2023-02-04T13:32:32.008Z,2.23
2023-02-04T13:35:01.235Z,1.70
2023-02-04T13:37:29.037Z,1.80
2023-02-04T13:39:57.112Z,1.70
2023-02-04T13:42:25.128Z,1.70
2023-02-04T13:44:54.272Z,1.70
2023-02-04T13:47:22.151Z,1.50
2023-02-04T13:49:50.016Z,1.50
2023-02-04T13:52:19.460Z,1.97
2023-02-04T13:54:47.435Z,1.87
2023-02-04T13:57:16.754Z,1.90
2023-02-04T13:59:47.257Z,2.43
2023-02-04T14:02:15.113Z,2.20
2023-02-04T14:04:43.932Z,1.97
2023-02-04T14:07:12.066Z,1.70
2023-02-04T14:09:41.357Z,1.93
2023-02-04T14:12:09.248Z,1.60
2023-02-04T14:14:37.345Z,1.87
2023-02-04T14:17:05.198Z,1.90
2023-02-04T14:19:33.105Z,1.90
2023-02-04T14:22:01.229Z,1.93
2023-02-04T14:24:29.132Z,3.03
2023-02-04T14:26:59.420Z,2.10
2023-02-04T14:29:27.318Z,1.53
2023-02-04T14:31:55.607Z,2.07
2023-02-04T14:34:23.593Z,1.70
2023-02-04T14:36:51.700Z,2.03
2023-02-04T14:39:19.923Z,2.00
2023-02-04T14:41:47.820Z,2.07
2023-02-04T14:44:20.900Z,3.13
2023-02-04T14:46:49.403Z,2.10
2023-02-04T14:49:17.593Z,2.40
2023-02-04T14:51:45.524Z,2.23
2023-02-04T14:54:13.803Z,2.10
2023-02-04T14:56:41.842Z,2.60
2023-02-04T14:59:09.793Z,2.00
2023-02-04T15:01:39.217Z,1.80
2023-02-04T15:04:07.058Z,2.20
2023-02-04T15:06:35.176Z,1.90
2023-02-04T15:09:03.096Z,2.10
2023-02-04T15:11:32.251Z,1.87
2023-02-04T15:14:00.119Z,1.93
2023-02-04T15:16:28.044Z,2.10
2023-02-04T15:18:57.478Z,2.00
2023-02-04T15:21:25.890Z,1.90
2023-02-04T15:23:54.021Z,2.07
2023-02-04T15:26:22.448Z,2.70
2023-02-04T15:28:50.573Z,1.90
2023-02-04T15:31:18.767Z,3.10
2023-02-04T15:33:46.657Z,2.47
2023-02-04T15:36:16.183Z,4.03
2023-02-04T15:38:44.244Z,2.90
2023-02-04T15:41:12.333Z,2.10
2023-02-04T15:43:40.373Z,2.40
2023-02-04T15:46:08.792Z,2.00
2023-02-04T15:48:36.738Z,2.47
2023-02-04T15:51:04.896Z,2.20
2023-02-04T15:53:34.821Z,2.20
2023-02-04T15:56:02.873Z,2.30
2023-02-04T15:58:31.120Z,2.67
2023-02-04T16:00:59.017Z,2.37
2023-02-04T16:03:26.857Z,2.17
2023-02-04T16:05:55.526Z,2.30
2023-02-04T16:08:29.360Z,2.47
2023-02-04T16:10:58.792Z,2.73
2023-02-04T16:13:26.750Z,2.60
2023-02-04T16:15:54.721Z,2.57
2023-02-04T16:18:24.181Z,3.00
2023-02-04T16:20:52.239Z,3.40
2023-02-04T16:23:20.173Z,3.70
2023-02-04T16:25:48.095Z,3.03
2023-02-04T16:28:17.393Z,3.27
2023-02-04T16:30:48.338Z,2.90
2023-02-04T16:33:16.331Z,3.00
2023-02-04T16:36:02.348Z,2.80
2023-02-04T16:38:33.378Z,4.50
2023-02-04T16:41:01.447Z,4.10
2023-02-04T16:43:32.994Z,3.60
2023-02-04T16:46:01.046Z,3.80
2023-02-04T16:48:29.892Z,3.70
2023-02-04T16:51:00.606Z,3.57
2023-02-04T16:53:28.535Z,3.70
2023-02-04T16:55:56.928Z,5.00
2023-02-04T16:58:26.724Z,4.10
2023-02-04T17:00:57.086Z,6.17
2023-02-04T17:03:24.962Z,4.33
2023-02-04T17:05:52.907Z,3.57
2023-02-04T17:08:20.833Z,4.10
2023-02-04T17:11:06.112Z,4.10
2023-02-04T17:13:34.376Z,3.90
2023-02-04T17:16:03.755Z,3.63
2023-02-04T17:18:32.631Z,6.13
2023-02-04T17:21:01.021Z,5.30
2023-02-04T17:23:29.598Z,7.93
2023-02-04T17:25:57.465Z,6.23
2023-02-04T17:28:26.248Z,4.63
2023-02-04T17:30:56.954Z,4.50
2023-02-04T17:33:26.623Z,4.33
2023-02-04T17:35:54.672Z,4.77
2023-02-04T17:38:23.728Z,4.67
2023-02-04T17:40:54.988Z,4.50
2023-02-04T17:43:23.081Z,4.70
2023-02-04T17:45:51.148Z,4.47
2023-02-04T17:48:19.799Z,4.33
2023-02-04T17:50:49.080Z,5.17
2023-02-04T17:53:16.989Z,4.30
2023-02-04T17:55:44.913Z,4.70
2023-02-04T17:58:15.648Z,4.70
2023-02-04T18:00:45.832Z,4.53
2023-02-04T18:03:15.229Z,4.77
2023-02-04T18:05:46.954Z,4.20
2023-02-04T18:08:18.894Z,4.60
2023-02-04T18:10:48.560Z,3.80
2023-02-04T18:13:19.249Z,4.30
2023-02-04T18:15:50.431Z,10.67
2023-02-04T18:18:25.241Z,4.10
2023-02-04T18:21:01.371Z,4.20
2023-02-04T18:23:33.747Z,3.90
2023-02-04T18:26:13.129Z,3.93
2023-02-04T18:28:44.013Z,3.60
2023-02-04T18:31:30.133Z,3.77
2023-02-04T18:33:59.057Z,4.80
2023-02-04T18:36:28.136Z,3.67
2023-02-04T18:38:57.977Z,3.87
2023-02-04T18:41:34.150Z,4.17
2023-02-04T18:44:17.657Z,3.03
2023-02-04T18:46:48.877Z,3.03
2023-02-04T18:49:27.290Z,3.70
2023-02-04T18:51:55.805Z,3.17
2023-02-04T18:54:40.834Z,3.30
2023-02-04T18:57:30.448Z,2.60
2023-02-04T19:00:21.247Z,3.40
2023-02-04T19:02:53.284Z,3.80
2023-02-04T19:05:28.349Z,2.97
2023-02-04T19:08:15.816Z,3.50
2023-02-04T19:10:45.514Z,3.23
2023-02-04T19:13:19.697Z,3.50
2023-02-04T19:15:58.846Z,3.00
2023-02-04T19:18:30.047Z,4.87
2023-02-04T19:21:08.601Z,4.10
2023-02-04T19:23:41.286Z,3.40
2023-02-04T19:26:28.720Z,2.70
2023-02-04T19:28:57.583Z,2.97
2023-02-04T19:31:29.722Z,3.03
2023-02-04T19:33:57.946Z,3.07
2023-02-04T19:36:35.502Z,2.40
2023-02-04T19:39:08.201Z,2.73
2023-02-04T19:41:44.377Z,3.23
2023-02-04T19:44:31.158Z,3.00
2023-02-04T19:47:18.920Z,2.80
2023-02-04T19:49:46.886Z,2.83
2023-02-04T19:52:30.014Z,2.63
2023-02-04T19:55:23.758Z,2.70
2023-02-04T19:57:55.492Z,3.50
2023-02-04T20:00:40.175Z,3.23
2023-02-04T20:03:16.636Z,2.77
2023-02-04T20:05:44.905Z,3.70
2023-02-04T20:08:42.445Z,3.50
2023-02-04T20:11:43.428Z,2.97
2023-02-04T20:14:47.149Z,3.70
2023-02-04T20:17:24.515Z,4.07
2023-02-04T20:19:55.274Z,4.20
2023-02-04T20:22:45.616Z,4.17
2023-02-04T20:25:39.073Z,3.73
2023-02-04T20:28:38.467Z,3.60
2023-02-04T20:31:20.151Z,4.00
2023-02-04T20:33:50.548Z,3.80
2023-02-04T20:36:42.498Z,3.70
2023-02-04T20:39:36.526Z,3.40
2023-02-04T20:42:34.323Z,3.43
2023-02-04T20:45:12.608Z,3.50
2023-02-04T20:47:42.020Z,3.80
2023-02-04T20:50:39.010Z,3.47
2023-02-04T20:53:09.056Z,3.97
2023-02-04T20:55:37.126Z,3.47
2023-02-04T20:58:16.976Z,3.27
2023-02-04T21:00:47.906Z,3.57
2023-02-04T21:03:37.041Z,4.57
2023-02-04T21:06:19.080Z,2.97
2023-02-04T21:08:48.992Z,3.30
2023-02-04T21:11:17.065Z,3.23
2023-02-04T21:13:44.930Z,3.67
2023-02-04T21:16:13.237Z,3.00
2023-02-04T21:18:42.693Z,2.90
2023-02-04T21:21:11.455Z,3.30
2023-02-04T21:23:39.713Z,3.60
2023-02-04T21:26:08.084Z,3.20
2023-02-04T21:28:36.153Z,3.13
2023-02-04T21:31:04.742Z,3.10
2023-02-04T21:33:33.116Z,2.93
2023-02-04T21:36:13.905Z,3.17
2023-02-04T21:38:47.088Z,3.23
2023-02-04T21:41:17.112Z,3.03
2023-02-04T21:43:45.025Z,3.23
2023-02-04T21:46:12.885Z,2.93
2023-02-04T21:48:43.524Z,3.27
2023-02-04T21:51:14.187Z,3.77
2023-02-04T21:53:42.984Z,3.93
2023-02-04T21:56:14.414Z,3.60
2023-02-04T21:58:42.418Z,3.57
2023-02-04T22:01:10.864Z,3.80
2023-02-04T22:03:38.963Z,4.37
2023-02-04T22:06:07.543Z,4.53
2023-02-04T22:08:37.163Z,3.80
2023-02-04T22:11:05.374Z,4.40
2023-02-04T22:13:50.904Z,3.87
2023-02-04T22:16:19.024Z,3.80
2023-02-04T22:18:46.946Z,4.00
2023-02-04T22:21:17.758Z,3.90
2023-02-04T22:23:47.025Z,3.60
2023-02-04T22:26:14.879Z,3.77
2023-02-04T22:28:42.827Z,3.90
2023-02-04T22:31:12.659Z,3.87
2023-02-04T22:33:40.622Z,3.20
2023-02-04T22:36:09.203Z,3.77
2023-02-04T22:38:37.707Z,3.50
2023-02-04T22:41:07.890Z,3.50
2023-02-04T22:43:39.574Z,3.37
2023-02-04T22:46:07.847Z,3.60
2023-02-04T22:48:38.819Z,3.43
2023-02-04T22:51:06.796Z,3.13
2023-02-04T22:53:35.015Z,3.20
2023-02-04T22:56:02.894Z,3.10
2023-02-04T22:58:32.182Z,3.37
2023-02-04T23:01:00.218Z,3.37
2023-02-04T23:03:31.029Z,3.50
2023-02-04T23:05:59.070Z,3.33
2023-02-04T23:08:28.603Z,3.60
2023-02-04T23:10:57.006Z,3.23
2023-02-04T23:13:26.900Z,3.63
2023-02-04T23:15:56.503Z,3.33
2023-02-04T23:18:28.754Z,3.60
2023-02-04T23:20:56.953Z,3.30
2023-02-04T23:23:26.525Z,3.60
2023-02-04T23:25:56.801Z,3.90
2023-02-04T23:28:27.655Z,3.60
2023-02-04T23:30:57.630Z,3.80
2023-02-04T23:33:27.330Z,3.33
2023-02-04T23:35:55.776Z,3.60
2023-02-04T23:38:23.952Z,4.10
2023-02-04T23:40:51.895Z,3.40
2023-02-04T23:43:20.146Z,4.10
2023-02-04T23:45:48.281Z,3.90
2023-02-04T23:48:17.984Z,4.00
2023-02-04T23:50:48.606Z,3.70
2023-02-04T23:53:16.696Z,3.73
2023-02-04T23:55:45.268Z,3.50
2023-02-04T23:58:13.456Z,3.73
